sensor_id;sensor_type;location;lat;lon;timestamp;P1;durP1;ratioP1;P2;durP2;ratioP2
5702;SDS011;2876;51.738;10.050;2023-02-28T00:05:17;2.77;;;1.40;;
5702;SDS011;2876;51.738;10.050;2023-02-28T00:11:21;1.30;;;1.20;;
5702;SDS011;2876;51.738;10.050;2023-02-28T00:17:23;1.40;;;1.30;;
5702;SDS011;2876;51.738;10.050;2023-02-28T00:23:25;2.53;;;1.30;;
5702;SDS011;2876;51.738;10.050;2023-02-28T00:29:28;1.57;;;1.30;;
5702;SDS011;2876;51.738;10.050;2023-02-28T00:35:30;1.60;;;1.30;;
5702;SDS011;2876;51.738;10.050;2023-02-28T00:41:32;1.30;;;1.20;;
5702;SDS011;2876;51.738;10.050;2023-02-28T00:47:34;1.40;;;1.30;;
5702;SDS011;2876;51.738;10.050;2023-02-28T00:53:36;2.60;;;1.10;;
5702;SDS011;2876;51.738;10.050;2023-02-28T00:59:38;1.37;;;1.23;;
5702;SDS011;2876;51.738;10.050;2023-02-28T01:05:40;1.20;;;1.10;;
5702;SDS011;2876;51.738;10.050;2023-02-28T01:11:42;1.00;;;1.00;;
5702;SDS011;2876;51.738;10.050;2023-02-28T01:17:45;3.13;;;1.27;;
5702;SDS011;2876;51.738;10.050;2023-02-28T01:23:47;3.60;;;1.20;;
5702;SDS011;2876;51.738;10.050;2023-02-28T01:29:50;1.47;;;1.10;;
5702;SDS011;2876;51.738;10.050;2023-02-28T01:35:59;3.23;;;1.30;;
5702;SDS011;2876;51.738;10.050;2023-02-28T01:42:08;1.70;;;1.13;;
5702;SDS011;2876;51.738;10.050;2023-02-28T01:48:11;1.40;;;1.27;;
5702;SDS011;2876;51.738;10.050;2023-02-28T01:54:14;1.93;;;1.20;;
5702;SDS011;2876;51.738;10.050;2023-02-28T02:00:23;1.57;;;1.27;;
5702;SDS011;2876;51.738;10.050;2023-02-28T02:06:33;1.30;;;1.20;;
5702;SDS011;2876;51.738;10.050;2023-02-28T02:13:01;1.37;;;1.27;;
5702;SDS011;2876;51.738;10.050;2023-02-28T02:39:14;1.07;;;1.00;;
5702;SDS011;2876;51.738;10.050;2023-02-28T02:51:36;2.93;;;1.40;;
5702;SDS011;2876;51.738;10.050;2023-02-28T02:57:46;3.40;;;1.30;;
5702;SDS011;2876;51.738;10.050;2023-02-28T03:04:04;1.70;;;1.20;;
5702;SDS011;2876;51.738;10.050;2023-02-28T03:30:15;1.53;;;1.30;;
5702;SDS011;2876;51.738;10.050;2023-02-28T03:36:32;1.73;;;1.30;;
5702;SDS011;2876;51.738;10.050;2023-02-28T03:42:45;1.35;;;1.25;;
5702;SDS011;2876;51.738;10.050;2023-02-28T03:48:57;2.30;;;1.47;;
5702;SDS011;2876;51.738;10.050;2023-02-28T03:55:17;2.60;;;1.57;;
5702;SDS011;2876;51.738;10.050;2023-02-28T04:01:24;1.40;;;1.30;;
5702;SDS011;2876;51.738;10.050;2023-02-28T04:07:42;4.90;;;1.43;;
5702;SDS011;2876;51.738;10.050;2023-02-28T04:13:44;2.03;;;1.40;;
5702;SDS011;2876;51.738;10.050;2023-02-28T04:19:47;1.37;;;1.23;;
5702;SDS011;2876;51.738;10.050;2023-02-28T04:25:54;1.63;;;1.17;;
5702;SDS011;2876;51.738;10.050;2023-02-28T04:31:56;1.80;;;1.30;;
5702;SDS011;2876;51.738;10.050;2023-02-28T04:38:00;3.10;;;1.40;;
5702;SDS011;2876;51.738;10.050;2023-02-28T04:44:02;2.80;;;1.90;;
5702;SDS011;2876;51.738;10.050;2023-02-28T04:50:04;3.30;;;1.33;;
5702;SDS011;2876;51.738;10.050;2023-02-28T04:56:07;1.67;;;1.00;;
5702;SDS011;2876;51.738;10.050;2023-02-28T05:02:12;1.67;;;1.40;;
5702;SDS011;2876;51.738;10.050;2023-02-28T05:08:14;1.93;;;1.60;;
5702;SDS011;2876;51.738;10.050;2023-02-28T05:14:16;1.37;;;1.10;;
5702;SDS011;2876;51.738;10.050;2023-02-28T05:20:18;1.80;;;1.60;;
5702;SDS011;2876;51.738;10.050;2023-02-28T05:26:22;1.57;;;1.40;;
5702;SDS011;2876;51.738;10.050;2023-02-28T05:32:25;1.50;;;1.40;;
5702;SDS011;2876;51.738;10.050;2023-02-28T05:38:27;4.50;;;1.47;;
5702;SDS011;2876;51.738;10.050;2023-02-28T05:44:28;3.13;;;1.70;;
5702;SDS011;2876;51.738;10.050;2023-02-28T05:50:31;1.93;;;1.63;;
5702;SDS011;2876;51.738;10.050;2023-02-28T05:56:32;2.73;;;1.40;;
5702;SDS011;2876;51.738;10.050;2023-02-28T06:02:40;1.90;;;1.70;;
5702;SDS011;2876;51.738;10.050;2023-02-28T06:08:42;5.73;;;1.80;;
5702;SDS011;2876;51.738;10.050;2023-02-28T06:14:45;2.50;;;1.27;;
5702;SDS011;2876;51.738;10.050;2023-02-28T06:20:53;2.70;;;1.63;;
5702;SDS011;2876;51.738;10.050;2023-02-28T06:26:56;1.90;;;1.53;;
5702;SDS011;2876;51.738;10.050;2023-02-28T06:33:05;1.73;;;1.40;;
5702;SDS011;2876;51.738;10.050;2023-02-28T06:39:08;2.40;;;1.80;;
5702;SDS011;2876;51.738;10.050;2023-02-28T06:45:11;3.30;;;1.87;;
5702;SDS011;2876;51.738;10.050;2023-02-28T06:51:14;1.60;;;1.50;;
5702;SDS011;2876;51.738;10.050;2023-02-28T06:57:21;2.47;;;1.70;;
5702;SDS011;2876;51.738;10.050;2023-02-28T07:03:25;4.47;;;1.67;;
5702;SDS011;2876;51.738;10.050;2023-02-28T07:09:27;4.23;;;1.87;;
5702;SDS011;2876;51.738;10.050;2023-02-28T07:15:30;3.77;;;2.20;;
5702;SDS011;2876;51.738;10.050;2023-02-28T07:21:32;3.53;;;2.97;;
5702;SDS011;2876;51.738;10.050;2023-02-28T07:27:34;3.10;;;2.57;;
5702;SDS011;2876;51.738;10.050;2023-02-28T07:33:37;3.33;;;2.60;;
5702;SDS011;2876;51.738;10.050;2023-02-28T07:39:39;2.83;;;2.53;;
5702;SDS011;2876;51.738;10.050;2023-02-28T07:45:44;4.40;;;2.60;;
5702;SDS011;2876;51.738;10.050;2023-02-28T07:51:46;5.20;;;2.67;;
5702;SDS011;2876;51.738;10.050;2023-02-28T07:57:48;3.40;;;2.70;;
5702;SDS011;2876;51.738;10.050;2023-02-28T08:03:50;4.17;;;2.40;;
5702;SDS011;2876;51.738;10.050;2023-02-28T08:09:52;4.70;;;2.70;;
5702;SDS011;2876;51.738;10.050;2023-02-28T08:15:55;3.70;;;2.90;;
5702;SDS011;2876;51.738;10.050;2023-02-28T08:21:57;2.90;;;2.60;;
5702;SDS011;2876;51.738;10.050;2023-02-28T08:28:00;3.30;;;2.93;;
5702;SDS011;2876;51.738;10.050;2023-02-28T08:34:12;7.00;;;3.63;;
5702;SDS011;2876;51.738;10.050;2023-02-28T08:40:16;4.37;;;2.83;;
5702;SDS011;2876;51.738;10.050;2023-02-28T08:46:19;3.40;;;2.80;;
5702;SDS011;2876;51.738;10.050;2023-02-28T08:52:22;4.60;;;2.73;;
5702;SDS011;2876;51.738;10.050;2023-02-28T08:58:23;4.37;;;2.70;;
5702;SDS011;2876;51.738;10.050;2023-02-28T09:04:25;3.60;;;2.90;;
5702;SDS011;2876;51.738;10.050;2023-02-28T09:10:28;3.67;;;2.70;;
5702;SDS011;2876;51.738;10.050;2023-02-28T09:16:30;4.90;;;2.37;;
5702;SDS011;2876;51.738;10.050;2023-02-28T09:22:35;5.13;;;2.30;;
5702;SDS011;2876;51.738;10.050;2023-02-28T09:28:37;3.60;;;2.77;;
5702;SDS011;2876;51.738;10.050;2023-02-28T09:34:38;3.23;;;2.60;;
5702;SDS011;2876;51.738;10.050;2023-02-28T09:40:50;4.50;;;2.30;;
5702;SDS011;2876;51.738;10.050;2023-02-28T09:47:00;3.50;;;1.97;;
5702;SDS011;2876;51.738;10.050;2023-02-28T09:53:31;1.87;;;1.60;;
5702;SDS011;2876;51.738;10.050;2023-02-28T10:06:12;2.63;;;2.10;;
5702;SDS011;2876;51.738;10.050;2023-02-28T10:12:20;2.30;;;2.10;;
5702;SDS011;2876;51.738;10.050;2023-02-28T10:18:24;3.70;;;2.10;;
5702;SDS011;2876;51.738;10.050;2023-02-28T10:24:36;2.33;;;1.70;;
5702;SDS011;2876;51.738;10.050;2023-02-28T10:30:49;2.30;;;1.77;;
5702;SDS011;2876;51.738;10.050;2023-02-28T10:36:53;2.27;;;2.07;;
5702;SDS011;2876;51.738;10.050;2023-02-28T10:49:05;2.90;;;1.80;;
5702;SDS011;2876;51.738;10.050;2023-02-28T10:55:35;2.70;;;2.10;;
5702;SDS011;2876;51.738;10.050;2023-02-28T11:08:03;2.27;;;1.50;;
5702;SDS011;2876;51.738;10.050;2023-02-28T11:14:20;3.77;;;1.80;;
5702;SDS011;2876;51.738;10.050;2023-02-28T11:20:31;3.87;;;2.23;;
5702;SDS011;2876;51.738;10.050;2023-02-28T11:26:42;2.70;;;1.70;;
5702;SDS011;2876;51.738;10.050;2023-02-28T11:32:50;2.27;;;1.80;;
5702;SDS011;2876;51.738;10.050;2023-02-28T11:38:52;2.07;;;1.80;;
5702;SDS011;2876;51.738;10.050;2023-02-28T11:51:35;2.33;;;1.73;;
5702;SDS011;2876;51.738;10.050;2023-02-28T11:57:59;3.03;;;2.03;;
5702;SDS011;2876;51.738;10.050;2023-02-28T12:10:44;3.53;;;2.37;;
5702;SDS011;2876;51.738;10.050;2023-02-28T12:36:18;2.50;;;2.30;;
5702;SDS011;2876;51.738;10.050;2023-02-28T12:42:30;1.97;;;1.77;;
5702;SDS011;2876;51.738;10.050;2023-02-28T12:48:52;2.10;;;1.93;;
5702;SDS011;2876;51.738;10.050;2023-02-28T13:08:07;2.50;;;1.97;;
5702;SDS011;2876;51.738;10.050;2023-02-28T13:14:34;2.00;;;1.90;;
5702;SDS011;2876;51.738;10.050;2023-02-28T13:20:39;2.50;;;2.20;;
5702;SDS011;2876;51.738;10.050;2023-02-28T13:45:36;3.80;;;2.10;;
5702;SDS011;2876;51.738;10.050;2023-02-28T13:51:47;3.80;;;2.20;;
5702;SDS011;2876;51.738;10.050;2023-02-28T14:11:03;4.67;;;2.70;;
5702;SDS011;2876;51.738;10.050;2023-02-28T14:17:14;2.70;;;2.37;;
5702;SDS011;2876;51.738;10.050;2023-02-28T14:36:20;4.17;;;2.77;;
5702;SDS011;2876;51.738;10.050;2023-02-28T14:42:36;3.70;;;2.30;;
5702;SDS011;2876;51.738;10.050;2023-02-28T14:48:44;3.27;;;2.67;;
5702;SDS011;2876;51.738;10.050;2023-02-28T14:54:58;5.07;;;2.73;;
5702;SDS011;2876;51.738;10.050;2023-02-28T15:01:11;4.77;;;3.43;;
5702;SDS011;2876;51.738;10.050;2023-02-28T15:07:14;4.23;;;2.70;;
5702;SDS011;2876;51.738;10.050;2023-02-28T15:13:16;4.13;;;3.10;;
5702;SDS011;2876;51.738;10.050;2023-02-28T15:19:21;6.10;;;3.67;;
5702;SDS011;2876;51.738;10.050;2023-02-28T15:25:42;3.83;;;3.00;;
5702;SDS011;2876;51.738;10.050;2023-02-28T15:31:49;7.27;;;3.67;;
5702;SDS011;2876;51.738;10.050;2023-02-28T15:38:02;4.10;;;2.80;;
5702;SDS011;2876;51.738;10.050;2023-02-28T15:44:28;4.60;;;3.23;;
5702;SDS011;2876;51.738;10.050;2023-02-28T15:50:38;5.50;;;3.50;;
5702;SDS011;2876;51.738;10.050;2023-02-28T15:56:46;6.33;;;3.17;;
5702;SDS011;2876;51.738;10.050;2023-02-28T16:02:54;4.63;;;3.30;;
5702;SDS011;2876;51.738;10.050;2023-02-28T16:08:56;4.37;;;2.93;;
5702;SDS011;2876;51.738;10.050;2023-02-28T16:14:59;9.20;;;3.17;;
5702;SDS011;2876;51.738;10.050;2023-02-28T16:21:08;6.20;;;3.00;;
5702;SDS011;2876;51.738;10.050;2023-02-28T16:27:33;3.17;;;2.83;;
5702;SDS011;2876;51.738;10.050;2023-02-28T16:33:38;5.13;;;3.00;;
5702;SDS011;2876;51.738;10.050;2023-02-28T16:39:40;7.63;;;3.60;;
5702;SDS011;2876;51.738;10.050;2023-02-28T16:45:43;4.03;;;3.67;;
5702;SDS011;2876;51.738;10.050;2023-02-28T16:51:46;4.17;;;3.30;;
5702;SDS011;2876;51.738;10.050;2023-02-28T16:57:59;3.83;;;3.53;;
5702;SDS011;2876;51.738;10.050;2023-02-28T17:04:03;6.20;;;3.97;;
5702;SDS011;2876;51.738;10.050;2023-02-28T17:10:10;5.70;;;3.73;;
5702;SDS011;2876;51.738;10.050;2023-02-28T17:22:32;5.73;;;3.40;;
5702;SDS011;2876;51.738;10.050;2023-02-28T17:28:33;5.60;;;4.20;;
5702;SDS011;2876;51.738;10.050;2023-02-28T17:34:35;6.53;;;4.20;;
5702;SDS011;2876;51.738;10.050;2023-02-28T17:40:38;6.30;;;4.60;;
5702;SDS011;2876;51.738;10.050;2023-02-28T17:46:40;11.73;;;4.83;;
5702;SDS011;2876;51.738;10.050;2023-02-28T17:52:43;8.40;;;5.20;;
5702;SDS011;2876;51.738;10.050;2023-02-28T17:58:45;6.40;;;4.57;;
5702;SDS011;2876;51.738;10.050;2023-02-28T18:04:47;7.53;;;4.97;;
5702;SDS011;2876;51.738;10.050;2023-02-28T18:10:49;8.67;;;5.40;;
5702;SDS011;2876;51.738;10.050;2023-02-28T18:16:52;11.20;;;5.37;;
5702;SDS011;2876;51.738;10.050;2023-02-28T18:22:55;7.30;;;4.93;;
5702;SDS011;2876;51.738;10.050;2023-02-28T18:28:57;7.23;;;5.03;;
5702;SDS011;2876;51.738;10.050;2023-02-28T18:34:59;9.47;;;5.40;;
5702;SDS011;2876;51.738;10.050;2023-02-28T18:41:02;8.67;;;5.17;;
5702;SDS011;2876;51.738;10.050;2023-02-28T18:47:06;10.00;;;5.20;;
5702;SDS011;2876;51.738;10.050;2023-02-28T18:53:08;6.73;;;4.80;;
5702;SDS011;2876;51.738;10.050;2023-02-28T18:59:10;6.57;;;5.47;;
5702;SDS011;2876;51.738;10.050;2023-02-28T19:05:12;7.47;;;4.40;;
5702;SDS011;2876;51.738;10.050;2023-02-28T19:11:15;8.03;;;5.30;;
5702;SDS011;2876;51.738;10.050;2023-02-28T19:17:19;6.80;;;4.67;;
5702;SDS011;2876;51.738;10.050;2023-02-28T19:23:21;5.70;;;4.13;;
5702;SDS011;2876;51.738;10.050;2023-02-28T19:29:23;7.00;;;4.60;;
5702;SDS011;2876;51.738;10.050;2023-02-28T19:35:25;7.97;;;4.90;;
5702;SDS011;2876;51.738;10.050;2023-02-28T19:41:27;7.07;;;5.03;;
5702;SDS011;2876;51.738;10.050;2023-02-28T19:47:29;5.87;;;4.70;;
5702;SDS011;2876;51.738;10.050;2023-02-28T19:53:32;9.00;;;5.10;;
5702;SDS011;2876;51.738;10.050;2023-02-28T19:59:36;9.07;;;5.60;;
5702;SDS011;2876;51.738;10.050;2023-02-28T20:05:40;9.00;;;4.40;;
5702;SDS011;2876;51.738;10.050;2023-02-28T20:11:42;5.90;;;4.50;;
5702;SDS011;2876;51.738;10.050;2023-02-28T20:17:46;6.10;;;4.13;;
5702;SDS011;2876;51.738;10.050;2023-02-28T20:23:48;5.33;;;4.23;;
5702;SDS011;2876;51.738;10.050;2023-02-28T20:29:50;6.40;;;4.90;;
5702;SDS011;2876;51.738;10.050;2023-02-28T20:36:02;7.70;;;5.00;;
5702;SDS011;2876;51.738;10.050;2023-02-28T20:42:05;6.40;;;4.73;;
5702;SDS011;2876;51.738;10.050;2023-02-28T20:48:07;5.50;;;4.27;;
5702;SDS011;2876;51.738;10.050;2023-02-28T20:54:09;5.37;;;4.80;;
5702;SDS011;2876;51.738;10.050;2023-02-28T21:00:12;9.53;;;4.93;;
5702;SDS011;2876;51.738;10.050;2023-02-28T21:06:20;6.90;;;4.57;;
5702;SDS011;2876;51.738;10.050;2023-02-28T21:12:25;10.83;;;5.27;;
5702;SDS011;2876;51.738;10.050;2023-02-28T21:18:27;5.57;;;4.30;;
5702;SDS011;2876;51.738;10.050;2023-02-28T21:24:28;5.53;;;4.40;;
5702;SDS011;2876;51.738;10.050;2023-02-28T21:30:31;6.20;;;4.40;;
5702;SDS011;2876;51.738;10.050;2023-02-28T21:36:37;7.13;;;4.43;;
5702;SDS011;2876;51.738;10.050;2023-02-28T21:42:45;7.63;;;4.30;;
5702;SDS011;2876;51.738;10.050;2023-02-28T21:48:47;5.93;;;3.80;;
5702;SDS011;2876;51.738;10.050;2023-02-28T21:54:49;6.60;;;4.00;;
5702;SDS011;2876;51.738;10.050;2023-02-28T22:00:51;5.70;;;4.33;;
5702;SDS011;2876;51.738;10.050;2023-02-28T22:06:54;8.20;;;4.30;;
5702;SDS011;2876;51.738;10.050;2023-02-28T22:13:00;12.63;;;4.73;;
5702;SDS011;2876;51.738;10.050;2023-02-28T22:19:04;6.37;;;4.00;;
5702;SDS011;2876;51.738;10.050;2023-02-28T22:25:08;6.13;;;4.00;;
5702;SDS011;2876;51.738;10.050;2023-02-28T22:31:11;5.23;;;4.03;;
5702;SDS011;2876;51.738;10.050;2023-02-28T22:37:15;8.00;;;5.67;;
5702;SDS011;2876;51.738;10.050;2023-02-28T22:43:17;11.10;;;4.73;;
5702;SDS011;2876;51.738;10.050;2023-02-28T22:49:19;5.97;;;5.13;;
5702;SDS011;2876;51.738;10.050;2023-02-28T22:55:21;7.47;;;4.17;;
5702;SDS011;2876;51.738;10.050;2023-02-28T23:01:24;6.63;;;4.57;;
5702;SDS011;2876;51.738;10.050;2023-02-28T23:07:28;7.70;;;5.27;;
5702;SDS011;2876;51.738;10.050;2023-02-28T23:13:30;9.13;;;5.70;;
5702;SDS011;2876;51.738;10.050;2023-02-28T23:19:32;11.23;;;5.53;;
5702;SDS011;2876;51.738;10.050;2023-02-28T23:25:34;8.50;;;4.87;;
5702;SDS011;2876;51.738;10.050;2023-02-28T23:31:40;6.83;;;4.50;;
5702;SDS011;2876;51.738;10.050;2023-02-28T23:37:42;8.03;;;5.97;;
5702;SDS011;2876;51.738;10.050;2023-02-28T23:43:45;8.67;;;6.10;;
5702;SDS011;2876;51.738;10.050;2023-02-28T23:49:48;16.20;;;6.40;;
5702;SDS011;2876;51.738;10.050;2023-02-28T23:55:49;9.97;;;7.20;;
